Time;durP1;ratioP1;P1;durP2;ratioP2;P2;SDS_P1;SDS_P2;PMS_P1;PMS_P2;Temp;Humidity;BMP_temperature;BMP_pressure;BME280_temperature;BME280_humidity;BME280_pressure;Samples;Min_cycle;Max_cycle;Signal;HPM_P1;HPM_P2
2023/01/16 00:05:13;;;;;;;1.98;0.77;;;4.90;99.90;;;;;;20469844;28;20031;-42
2023/01/16 00:15:14;;;;;;;0.93;0.60;;;4.90;99.90;;;;;;20475025;28;20059;-42
2023/01/16 00:25:15;;;;;;;2.30;1.25;;;4.90;97.60;;;;;;20474266;28;20081;-42
2023/01/16 00:35:16;;;;;;;2.60;1.35;;;4.70;97.40;;;;;;20467732;28;20097;-42
2023/01/16 00:45:17;;;;;;;4.32;2.30;;;4.60;97.70;;;;;;20467148;28;20075;-42
2023/01/16 00:55:18;;;;;;;3.95;2.20;;;4.60;95.60;;;;;;20476551;28;20113;-42
2023/01/16 01:05:19;;;;;;;4.20;1.88;;;4.50;95.70;;;;;;20496602;28;20485;-42
2023/01/16 01:15:21;;;;;;;23.98;4.78;;;4.30;97.50;;;;;;20491252;28;20256;-42
2023/01/16 01:25:23;;;;;;;4.72;3.40;;;4.30;99.00;;;;;;20486645;28;20833;-42
2023/01/16 01:35:24;;;;;;;3.10;2.33;;;4.20;99.90;;;;;;20494159;28;20161;-42
2023/01/16 01:45:26;;;;;;;14.77;4.03;;;4.10;99.90;;;;;;20498829;28;20050;-42
2023/01/16 01:55:27;;;;;;;6.20;2.95;;;4.10;99.90;;;;;;20500053;28;20850;-42
2023/01/16 02:05:35;;;;;;;4.70;2.55;;;4.00;99.90;;;;;;20494478;28;20047;-42
2023/01/16 02:19:14;;;;;;;3.38;1.95;;;3.90;99.90;;;;;;20485968;28;20090;-42
2023/01/16 02:26:16;;;;;;;7.53;2.08;;;3.90;99.90;;;;;;20477438;28;20950;-42
2023/01/16 02:36:35;;;;;;;15.48;3.20;;;3.90;99.90;;;;;;20479306;28;20427;-42
2023/01/16 02:47:19;;;;;;;4.13;2.30;;;3.90;99.90;;;;;;20481247;28;20962;-42
2023/01/16 02:57:23;;;;;;;4.32;2.10;;;3.90;99.90;;;;;;20464066;28;20941;-42
2023/01/16 03:07:57;;;;;;;4.88;2.10;;;3.80;99.90;;;;;;20475226;28;20446;-42
2023/01/16 03:18:06;;;;;;;3.67;1.67;;;3.80;99.90;;;;;;20471861;28;20312;-42
2023/01/16 03:28:25;;;;;;;4.13;1.55;;;3.80;99.90;;;;;;20474389;28;20552;-42
2023/01/16 03:38:29;;;;;;;8.63;1.08;;;3.70;99.90;;;;;;20474298;28;20805;-42
2023/01/16 03:48:42;;;;;;;2.90;0.80;;;3.80;99.90;;;;;;20477077;28;20212;-42
2023/01/16 03:58:46;;;;;;;1.60;0.80;;;3.80;99.90;;;;;;20470863;28;20307;-42
2023/01/16 04:08:49;;;;;;;2.88;0.98;;;3.80;99.90;;;;;;20470574;28;20043;-42
2023/01/16 04:18:53;;;;;;;2.75;1.10;;;3.90;99.90;;;;;;20465914;28;20074;-42
2023/01/16 04:28:55;;;;;;;3.63;1.15;;;3.90;99.90;;;;;;20474615;28;20507;-42
2023/01/16 04:38:56;;;;;;;1.70;0.80;;;4.00;99.90;;;;;;20472993;28;20132;-42
2023/01/16 04:48:57;;;;;;;2.50;1.23;;;4.10;99.90;;;;;;20452889;28;20058;-43
2023/01/16 04:58:58;;;;;;;2.30;0.52;;;4.00;99.30;;;;;;20476914;28;20384;-42
2023/01/16 05:08:59;;;;;;;2.58;0.77;;;4.10;98.10;;;;;;20472892;28;20039;-43
2023/01/16 05:19:00;;;;;;;3.60;0.40;;;4.00;97.80;;;;;;20464115;28;20050;-42
2023/01/16 05:29:01;;;;;;;2.85;0.70;;;3.90;97.20;;;;;;20468717;28;20101;-42
2023/01/16 05:39:02;;;;;;;0.90;0.40;;;4.00;98.10;;;;;;20466415;28;20035;-42
2023/01/16 05:49:03;;;;;;;2.30;0.57;;;4.00;97.30;;;;;;20476817;28;20109;-43
2023/01/16 05:59:04;;;;;;;3.60;1.58;;;4.10;96.70;;;;;;20484579;28;20031;-42
2023/01/16 06:09:06;;;;;;;1.77;0.65;;;4.20;96.60;;;;;;20485375;28;20050;-42
2023/01/16 06:19:07;;;;;;;5.28;1.38;;;4.30;95.50;;;;;;20480446;28;20042;-42
2023/01/16 06:29:09;;;;;;;2.33;0.77;;;4.30;94.50;;;;;;20484019;28;20043;-42
2023/01/16 06:39:11;;;;;;;2.28;1.23;;;4.40;94.40;;;;;;20474901;28;20522;-45
2023/01/16 06:49:12;;;;;;;4.28;1.45;;;4.50;95.70;;;;;;20480464;28;20039;-44
2023/01/16 06:59:13;;;;;;;2.53;1.63;;;4.30;99.90;;;;;;20471488;28;20477;-43
2023/01/16 07:09:14;;;;;;;8.93;1.30;;;4.30;99.90;;;;;;20471267;28;20039;-43
2023/01/16 07:29:35;;;;;;;1.80;0.55;;;4.30;99.90;;;;;;20471774;28;20896;-43
2023/01/16 07:39:37;;;;;;;2.25;1.08;;;4.30;99.90;;;;;;20467938;28;20605;-43
2023/01/16 07:49:38;;;;;;;3.53;1.30;;;4.20;99.90;;;;;;20469550;28;20046;-43
2023/01/16 07:59:39;;;;;;;2.30;0.60;;;4.10;99.90;;;;;;20483604;28;20164;-42
2023/01/16 08:09:40;;;;;;;0.73;0.40;;;4.10;99.90;;;;;;20477142;28;20039;-43
2023/01/16 08:19:41;;;;;;;1.75;0.95;;;4.00;99.90;;;;;;20478185;28;20059;-43
2023/01/16 08:29:42;;;;;;;3.05;0.50;;;4.10;99.90;;;;;;20489365;28;20050;-44
2023/01/16 08:39:43;;;;;;;2.45;0.68;;;4.10;99.90;;;;;;20473820;28;20039;-43
2023/01/16 09:00:07;;;;;;;1.00;0.50;;;4.20;99.90;;;;;;20485310;28;20071;-44
2023/01/16 09:10:09;;;;;;;1.73;0.70;;;4.20;99.90;;;;;;20479373;28;20439;-44
2023/01/16 09:20:10;;;;;;;2.95;1.08;;;4.20;99.90;;;;;;20490921;28;20074;-44
2023/01/16 09:30:12;;;;;;;2.03;1.00;;;4.30;99.90;;;;;;20503599;28;20094;-44
2023/01/16 09:40:17;;;;;;;2.17;0.85;;;4.40;99.90;;;;;;20500212;28;20050;-43
2023/01/16 09:50:44;;;;;;;2.28;1.48;;;4.50;99.90;;;;;;20491655;28;20083;-44
2023/01/16 10:00:45;;;;;;;3.08;1.33;;;4.60;99.90;;;;;;20486080;28;20802;-44
2023/01/16 10:10:57;;;;;;;2.05;0.70;;;4.70;99.90;;;;;;20490990;28;20043;-44
2023/01/16 10:21:19;;;;;;;2.05;0.90;;;4.70;99.90;;;;;;20480035;28;20553;-44
2023/01/16 10:31:32;;;;;;;2.10;0.73;;;4.70;99.90;;;;;;20489696;28;20160;-43
2023/01/16 10:52:05;;;;;;;4.32;1.25;;;4.60;99.90;;;;;;20464605;28;21086;-44
2023/01/16 11:02:24;;;;;;;6.15;1.15;;;4.60;99.90;;;;;;20479715;28;20054;-44
2023/01/16 11:22:57;;;;;;;1.15;0.75;;;4.70;99.90;;;;;;20477596;28;21931;-44
2023/01/16 11:32:59;;;;;;;1.05;0.50;;;4.70;99.90;;;;;;20473706;28;20075;-44
2023/01/16 11:53:34;;;;;;;3.80;1.35;;;4.90;99.90;;;;;;20481109;28;20195;-44
2023/01/16 12:03:55;;;;;;;2.03;1.02;;;5.00;99.90;;;;;;20469477;28;20091;-44
2023/01/16 12:14:17;;;;;;;1.02;0.40;;;5.30;99.90;;;;;;20424297;28;20517;-43
2023/01/16 12:24:50;;;;;;;0.75;0.32;;;5.60;99.90;;;;;;20476095;28;20113;-44
2023/01/16 12:35:05;;;;;;;1.90;1.00;;;5.60;99.90;;;;;;20427595;28;20870;-43
2023/01/16 12:45:15;;;;;;;0.98;0.30;;;5.50;99.90;;;;;;20470272;28;20071;-43
2023/01/16 12:55:54;;;;;;;1.27;0.77;;;5.40;99.90;;;;;;20456436;28;20138;-44
2023/01/16 13:05:57;;;;;;;1.13;0.52;;;5.40;99.90;;;;;;20458304;28;20589;-43
2023/01/16 13:16:23;;;;;;;1.85;0.80;;;5.50;99.90;;;;;;20462791;28;20510;-44
2023/01/16 13:26:26;;;;;;;1.27;0.73;;;5.50;99.90;;;;;;20469461;28;20145;-43
2023/01/16 13:36:33;;;;;;;0.65;0.38;;;5.50;99.90;;;;;;20467484;28;20889;-44
2023/01/16 13:46:35;;;;;;;1.42;0.50;;;5.50;99.90;;;;;;20483972;28;20055;-44
2023/01/16 13:56:40;;;;;;;3.80;1.58;;;5.50;99.90;;;;;;20489364;28;20058;-44
2023/01/16 14:17:25;;;;;;;1.67;0.65;;;5.50;99.90;;;;;;20498628;28;20067;-45
2023/01/16 14:27:32;;;;;;;2.20;0.85;;;5.50;99.90;;;;;;20483146;28;20177;-44
2023/01/16 14:37:38;;;;;;;1.52;0.60;;;5.50;99.90;;;;;;20489587;28;20066;-45
2023/01/16 14:58:31;;;;;;;1.05;0.55;;;5.40;99.90;;;;;;20505025;28;20055;-44
2023/01/16 15:08:35;;;;;;;5.63;2.15;;;5.50;99.90;;;;;;20496308;28;20743;-45
2023/01/16 15:29:18;;;;;;;1.48;0.60;;;5.50;99.90;;;;;;20482367;28;21415;-44
2023/01/16 15:39:33;;;;;;;18.87;11.00;;;5.50;99.90;;;;;;20479403;28;20125;-42
2023/01/16 15:49:46;;;;;;;2.67;1.13;;;5.50;99.90;;;;;;20479756;28;21754;-42
2023/01/16 15:59:53;;;;;;;6.18;2.05;;;5.40;99.90;;;;;;20476471;28;20877;-42
2023/01/16 16:09:59;;;;;;;3.72;1.23;;;5.40;99.90;;;;;;20476682;28;20126;-42
2023/01/16 16:20:39;;;;;;;7.07;4.07;;;5.30;99.90;;;;;;20469985;28;20117;-42
2023/01/16 16:30:41;;;;;;;2.28;0.77;;;5.30;99.90;;;;;;20476737;28;21166;-42
2023/01/16 16:40:42;;;;;;;1.20;0.30;;;5.30;99.90;;;;;;20473188;28;20129;-42
2023/01/16 16:50:45;;;;;;;1.95;0.40;;;4.80;99.90;;;;;;20483696;28;20122;-42
2023/01/16 17:00:46;;;;;;;2.33;0.40;;;4.60;99.90;;;;;;20482101;28;20051;-42
2023/01/16 17:10:51;;;;;;;0.65;0.25;;;4.40;99.90;;;;;;20486401;28;20039;-42
2023/01/16 17:20:53;;;;;;;0.60;0.32;;;4.10;99.90;;;;;;20486914;28;20094;-43
2023/01/16 17:30:54;;;;;;;2.10;0.68;;;4.00;99.90;;;;;;20479305;28;20109;-43
2023/01/16 17:40:55;;;;;;;1.08;0.40;;;4.00;99.90;;;;;;20471175;28;20074;-43
2023/01/16 17:50:58;;;;;;;2.80;0.93;;;4.10;99.90;;;;;;20485978;28;20077;-43
2023/01/16 18:01:04;;;;;;;8.20;1.23;;;4.10;99.90;;;;;;20481103;28;20221;-43
2023/01/16 18:32:19;;;;;;;0.60;0.38;;;4.20;99.90;;;;;;20435719;28;20863;-42
2023/01/16 19:02:54;;;;;;;1.40;0.47;;;4.30;99.90;;;;;;20453904;28;20926;-42
2023/01/16 19:12:58;;;;;;;1.67;0.88;;;4.30;99.90;;;;;;20474436;28;20125;-42
2023/01/16 19:22:59;;;;;;;0.73;0.30;;;4.30;99.90;;;;;;20450588;28;20154;-42
2023/01/16 19:33:01;;;;;;;1.20;0.40;;;4.10;99.90;;;;;;20458404;28;20557;-42
2023/01/16 19:53:22;;;;;;;2.95;1.17;;;4.20;99.90;;;;;;20472817;28;20531;-42
2023/01/16 20:03:23;;;;;;;1.70;0.65;;;4.20;99.90;;;;;;20461975;28;20105;-43
2023/01/16 20:13:24;;;;;;;2.03;0.95;;;4.10;99.90;;;;;;20468502;28;20500;-42
2023/01/16 20:23:29;;;;;;;8.10;2.55;;;4.20;99.90;;;;;;20456884;28;20069;-43
2023/01/16 20:33:30;;;;;;;3.10;1.05;;;4.40;99.90;;;;;;20458465;28;20770;-42
2023/01/16 20:53:51;;;;;;;1.25;0.77;;;4.40;99.90;;;;;;20472392;28;20753;-42
2023/01/16 21:03:52;;;;;;;1.10;0.20;;;4.30;99.90;;;;;;20452017;28;20075;-42
2023/01/16 21:14:12;;;;;;;1.52;0.88;;;4.20;99.90;;;;;;20424984;28;20055;-42
2023/01/16 21:24:14;;;;;;;4.38;1.23;;;4.10;99.90;;;;;;20474608;28;20087;-43
2023/01/16 21:34:15;;;;;;;1.63;0.40;;;4.00;99.90;;;;;;20476001;28;20094;-42
2023/01/16 21:54:36;;;;;;;2.15;0.50;;;3.80;99.90;;;;;;20474066;28;21898;-43
2023/01/16 22:04:37;;;;;;;1.40;0.30;;;3.90;99.90;;;;;;20470539;28;20067;-42
2023/01/16 22:24:58;;;;;;;0.85;0.30;;;4.10;99.90;;;;;;20462014;28;20913;-43
2023/01/16 22:34:59;;;;;;;4.03;0.90;;;4.10;99.90;;;;;;20474180;28;20042;-43
2023/01/16 22:55:20;;;;;;;2.03;0.85;;;4.20;99.90;;;;;;20473646;28;20071;-43
2023/01/16 23:05:21;;;;;;;4.53;0.93;;;4.10;99.90;;;;;;20470828;28;20035;-43
2023/01/16 23:15:22;;;;;;;9.18;0.70;;;4.00;99.90;;;;;;20472555;28;20149;-43
2023/01/16 23:25:23;;;;;;;19.25;1.50;;;4.00;99.90;;;;;;20473906;28;20047;-43
2023/01/16 23:35:24;;;;;;;2.15;0.85;;;4.00;99.90;;;;;;20480974;28;20081;-42
2023/01/16 23:45:25;;;;;;;1.40;0.82;;;3.90;99.90;;;;;;20479105;28;20051;-42
2023/01/16 23:55:26;;;;;;;1.95;0.70;;;3.70;99.90;;;;;;20477146;28;20463;-42
